Time;durP1;ratioP1;P1;durP2;ratioP2;P2;SDS_P1;SDS_P2;PMS_P1;PMS_P2;Temp;Humidity;BMP_temperature;BMP_pressure;BME280_temperature;BME280_humidity;BME280_pressure;Samples;Min_cycle;Max_cycle;Signal;HPM_P1;HPM_P2
2021/09/04 00:01:41;;;;;;;5.10;4.40;;;13.30;99.90;;;;;;5033759;28;20254;-64
2021/09/04 00:04:07;;;;;;;5.30;4.80;;;13.30;99.90;;;;;;5043097;28;20217;-63
2021/09/04 00:06:33;;;;;;;5.77;5.27;;;13.20;99.90;;;;;;5053350;28;20909;-64
2021/09/04 00:09:01;;;;;;;5.73;5.17;;;13.20;99.90;;;;;;5053107;28;20225;-64
2021/09/04 00:11:26;;;;;;;5.60;5.07;;;13.20;99.90;;;;;;5052198;28;20170;-64
2021/09/04 00:13:52;;;;;;;5.27;4.27;;;13.10;99.90;;;;;;5053630;28;20552;-63
2021/09/04 00:16:17;;;;;;;4.73;4.33;;;13.10;99.90;;;;;;5053440;28;20175;-63
2021/09/04 00:18:43;;;;;;;6.23;4.67;;;13.10;99.90;;;;;;5044286;28;20609;-64
2021/09/04 00:21:09;;;;;;;5.87;5.10;;;13.00;99.90;;;;;;5033698;28;20194;-63
2021/09/04 00:23:34;;;;;;;5.70;5.03;;;13.00;99.90;;;;;;5032397;28;20170;-64
2021/09/04 00:26:00;;;;;;;6.50;4.90;;;13.00;99.90;;;;;;5033676;28;20175;-64
2021/09/04 00:28:25;;;;;;;6.33;4.90;;;13.00;99.90;;;;;;5033136;28;20260;-64
2021/09/04 00:30:51;;;;;;;6.13;5.17;;;13.00;99.90;;;;;;5033504;28;20723;-64
2021/09/04 00:33:17;;;;;;;5.20;4.23;;;13.00;99.90;;;;;;5039854;28;20685;-64
2021/09/04 00:35:42;;;;;;;5.23;4.73;;;12.90;99.90;;;;;;5053034;28;20219;-64
2021/09/04 00:38:08;;;;;;;5.70;5.20;;;12.90;99.90;;;;;;5052794;28;20197;-63
2021/09/04 00:40:34;;;;;;;5.90;4.37;;;12.90;99.90;;;;;;5053261;28;20251;-64
2021/09/04 00:42:59;;;;;;;4.70;4.30;;;12.90;99.90;;;;;;5053118;28;20183;-64
2021/09/04 00:45:25;;;;;;;6.50;4.20;;;12.80;99.90;;;;;;5052691;28;20170;-63
2021/09/04 00:48:03;;;;;;;5.70;4.80;;;12.80;99.90;;;;;;5047426;28;20783;-63
2021/09/04 00:50:31;;;;;;;5.20;3.80;;;12.80;99.90;;;;;;5033222;28;20181;-63
2021/09/04 00:53:00;;;;;;;6.18;5.38;;;12.70;99.90;;;;;;5032902;28;20688;-63
2021/09/04 00:55:27;;;;;;;5.60;4.57;;;12.70;99.90;;;;;;5033390;28;20705;-63
2021/09/04 00:57:54;;;;;;;9.43;6.13;;;12.70;99.90;;;;;;5032528;28;20204;-64
2021/09/04 01:00:23;;;;;;;5.60;4.88;;;12.70;99.90;;;;;;5032827;28;20589;-64
2021/09/04 01:02:51;;;;;;;5.35;4.65;;;12.70;99.90;;;;;;5039190;28;20176;-64
2021/09/04 01:05:22;;;;;;;6.90;5.25;;;12.60;99.90;;;;;;5052789;28;20169;-63
2021/09/04 01:07:48;;;;;;;4.57;4.15;;;12.60;99.90;;;;;;5052394;28;20256;-63
2021/09/04 01:10:14;;;;;;;5.00;4.13;;;12.50;99.90;;;;;;5052522;28;20206;-63
2021/09/04 01:12:40;;;;;;;6.43;4.80;;;12.50;99.90;;;;;;5052668;28;20447;-63
2021/09/04 01:15:08;;;;;;;4.80;4.30;;;12.50;99.90;;;;;;5051283;28;20536;-64
2021/09/04 01:17:35;;;;;;;4.57;4.18;;;12.50;99.90;;;;;;5052677;28;20422;-64
2021/09/04 01:20:00;;;;;;;4.80;4.15;;;12.40;99.90;;;;;;5051388;28;20204;-64
2021/09/04 01:22:32;;;;;;;5.20;4.70;;;12.40;99.90;;;;;;5052782;28;20193;-64
2021/09/04 01:25:02;;;;;;;4.15;3.63;;;12.40;99.90;;;;;;5052701;28;20163;-64
2021/09/04 01:27:28;;;;;;;5.90;5.00;;;12.40;99.90;;;;;;5052340;28;20600;-64
2021/09/04 01:29:54;;;;;;;6.00;5.43;;;12.40;99.90;;;;;;5051897;28;20432;-65
2021/09/04 01:32:20;;;;;;;6.13;4.43;;;12.30;99.90;;;;;;5052500;28;20188;-64
2021/09/04 01:34:45;;;;;;;5.37;4.70;;;12.30;99.90;;;;;;5051277;28;20170;-64
2021/09/04 01:37:13;;;;;;;6.13;4.70;;;12.30;99.90;;;;;;5052183;28;20682;-65
2021/09/04 01:39:38;;;;;;;8.20;5.47;;;12.30;99.90;;;;;;5052608;28;20235;-64
2021/09/04 01:42:04;;;;;;;5.40;4.30;;;12.20;99.90;;;;;;5052619;28;20174;-64
2021/09/04 01:44:30;;;;;;;7.30;5.20;;;12.20;99.90;;;;;;5051877;28;20238;-65
2021/09/04 01:46:55;;;;;;;6.23;5.10;;;12.30;99.90;;;;;;5051934;28;20574;-64
2021/09/04 01:49:21;;;;;;;6.20;4.57;;;12.20;99.90;;;;;;5050953;28;20209;-64
2021/09/04 01:51:47;;;;;;;6.10;5.10;;;12.20;99.90;;;;;;5052349;28;20169;-64
2021/09/04 01:54:12;;;;;;;5.63;5.00;;;12.20;99.90;;;;;;5052258;28;20205;-64
2021/09/04 01:56:38;;;;;;;6.80;5.23;;;12.20;99.90;;;;;;5049865;28;20691;-65
2021/09/04 01:59:04;;;;;;;7.97;5.20;;;12.20;99.90;;;;;;5052831;28;20200;-64
2021/09/04 02:01:29;;;;;;;5.30;4.80;;;12.20;99.90;;;;;;5056019;28;20181;-64
2021/09/04 02:03:58;;;;;;;7.87;6.37;;;12.20;99.90;;;;;;5055758;28;20171;-64
2021/09/04 02:06:23;;;;;;;4.88;4.47;;;12.10;99.90;;;;;;5055800;28;20209;-64
2021/09/04 02:08:49;;;;;;;6.10;5.47;;;12.10;99.90;;;;;;5054162;28;20235;-64
2021/09/04 02:11:15;;;;;;;6.05;4.15;;;12.10;99.90;;;;;;5054635;28;20565;-65
2021/09/04 02:13:41;;;;;;;5.60;4.80;;;12.10;99.90;;;;;;5035443;28;20253;-62
2021/09/04 02:16:06;;;;;;;5.57;5.03;;;12.10;99.90;;;;;;5035547;28;20174;-63
2021/09/04 02:18:33;;;;;;;6.00;4.90;;;12.10;99.90;;;;;;5035118;28;20649;-62
2021/09/04 02:21:02;;;;;;;8.43;4.60;;;12.00;99.90;;;;;;5034127;28;20197;-62
2021/09/04 02:23:30;;;;;;;5.55;5.00;;;12.00;99.90;;;;;;5035475;28;20186;-63
2021/09/04 02:25:56;;;;;;;5.60;4.60;;;12.00;99.90;;;;;;5035381;28;20660;-63
2021/09/04 02:28:21;;;;;;;5.43;4.93;;;12.00;99.90;;;;;;5054720;28;20237;-64
2021/09/04 02:30:47;;;;;;;5.43;4.93;;;12.00;99.90;;;;;;5055330;28;20218;-64
2021/09/04 02:33:13;;;;;;;5.77;4.90;;;11.90;99.90;;;;;;5055106;28;20208;-64
2021/09/04 02:35:39;;;;;;;6.83;5.23;;;11.90;99.90;;;;;;5055103;28;20470;-63
2021/09/04 02:38:05;;;;;;;6.90;5.10;;;11.90;99.90;;;;;;5054647;28;20205;-63
2021/09/04 02:40:30;;;;;;;6.40;4.67;;;11.90;99.90;;;;;;5053989;28;20220;-63
2021/09/04 02:42:56;;;;;;;5.27;4.50;;;11.90;99.90;;;;;;5035664;28;20545;-63
2021/09/04 02:45:25;;;;;;;7.17;5.10;;;11.90;99.90;;;;;;5034982;28;20170;-65
2021/09/04 02:47:54;;;;;;;8.10;5.65;;;11.90;99.90;;;;;;5034758;28;20175;-64
2021/09/04 02:50:22;;;;;;;4.93;4.53;;;11.90;99.90;;;;;;5035961;28;20569;-64
2021/09/04 02:52:48;;;;;;;6.00;4.85;;;11.80;99.90;;;;;;5035119;28;20206;-64
2021/09/04 02:55:13;;;;;;;5.73;4.90;;;11.80;99.90;;;;;;5034782;28;20297;-65
2021/09/04 02:57:39;;;;;;;7.30;5.97;;;11.70;99.90;;;;;;5033114;28;20205;-65
2021/09/04 03:00:06;;;;;;;5.80;4.53;;;11.80;99.90;;;;;;5034894;28;20780;-64
2021/09/04 03:02:31;;;;;;;4.82;4.10;;;11.80;99.90;;;;;;5033608;28;20189;-64
2021/09/04 03:04:57;;;;;;;6.10;4.90;;;11.70;99.90;;;;;;5035231;28;20174;-64
2021/09/04 03:07:23;;;;;;;5.80;5.30;;;11.70;99.90;;;;;;5034286;28;20171;-64
2021/09/04 03:09:49;;;;;;;6.90;4.90;;;11.60;99.90;;;;;;5034480;28;20275;-65
2021/09/04 03:12:14;;;;;;;7.73;5.63;;;11.60;99.90;;;;;;5034486;28;20166;-64
2021/09/04 03:14:42;;;;;;;4.13;3.60;;;11.60;99.90;;;;;;5034470;28;20799;-65
2021/09/04 03:17:21;;;;;;;4.60;4.20;;;11.50;99.90;;;;;;5034182;28;20174;-65
2021/09/04 03:19:47;;;;;;;6.10;5.32;;;11.50;99.90;;;;;;5050336;28;20292;-64
2021/09/04 03:22:12;;;;;;;4.40;4.00;;;11.50;99.90;;;;;;5054253;28;20643;-64
2021/09/04 03:24:39;;;;;;;5.90;4.70;;;11.50;99.90;;;;;;5054428;28;20264;-64
2021/09/04 03:27:06;;;;;;;6.47;5.85;;;11.40;99.90;;;;;;5052265;28;20528;-65
2021/09/04 03:29:31;;;;;;;4.93;4.40;;;11.40;99.90;;;;;;5054148;28;20262;-64
2021/09/04 03:31:57;;;;;;;5.50;5.00;;;11.40;99.90;;;;;;5052541;28;20675;-64
2021/09/04 03:34:29;;;;;;;5.57;4.27;;;11.40;99.90;;;;;;5052215;28;20204;-64
2021/09/04 03:36:54;;;;;;;6.55;5.68;;;11.30;99.90;;;;;;5053800;28;20177;-64
2021/09/04 03:39:20;;;;;;;7.67;5.83;;;11.40;99.90;;;;;;5053742;28;20655;-63
2021/09/04 03:41:46;;;;;;;8.03;6.03;;;11.40;99.90;;;;;;5054285;28;20216;-64
2021/09/04 03:44:11;;;;;;;6.93;5.53;;;11.30;99.90;;;;;;5053822;28;20223;-64
2021/09/04 03:46:37;;;;;;;7.00;6.30;;;11.40;99.90;;;;;;5053409;28;20178;-64
2021/09/04 03:49:03;;;;;;;7.87;6.30;;;11.30;99.90;;;;;;5050042;28;20801;-64
2021/09/04 03:51:29;;;;;;;6.53;4.83;;;11.30;99.90;;;;;;5034060;28;20261;-64
2021/09/04 03:53:54;;;;;;;5.17;4.67;;;11.30;99.90;;;;;;5035175;28;20201;-63
2021/09/04 03:56:23;;;;;;;5.10;4.50;;;11.30;99.90;;;;;;5033664;28;20424;-64
2021/09/04 03:58:51;;;;;;;6.38;4.75;;;11.30;99.90;;;;;;5031854;28;20244;-64
2021/09/04 04:01:20;;;;;;;7.72;5.13;;;11.30;99.90;;;;;;5033652;28;20216;-64
2021/09/04 04:03:46;;;;;;;5.38;4.85;;;11.30;99.90;;;;;;5033798;28;20264;-64
2021/09/04 04:06:11;;;;;;;14.03;5.53;;;11.40;99.90;;;;;;5053565;28;20611;-64
2021/09/04 04:08:37;;;;;;;5.00;4.50;;;11.30;99.90;;;;;;5053336;28;20181;-64
2021/09/04 04:11:10;;;;;;;6.90;5.13;;;11.30;99.90;;;;;;5053901;28;20183;-63
2021/09/04 04:13:37;;;;;;;5.28;4.60;;;11.20;99.90;;;;;;5053466;28;20232;-64
2021/09/04 04:16:03;;;;;;;5.47;4.85;;;11.20;99.90;;;;;;5053746;28;20162;-64
2021/09/04 04:18:29;;;;;;;5.28;4.35;;;11.20;99.90;;;;;;5051384;28;20243;-64
2021/09/04 04:20:54;;;;;;;7.10;4.53;;;11.10;99.90;;;;;;5033158;28;20553;-64
2021/09/04 04:23:20;;;;;;;5.77;4.60;;;11.10;99.90;;;;;;5033462;28;20174;-64
2021/09/04 04:25:46;;;;;;;4.87;4.47;;;11.10;99.90;;;;;;5033393;28;20597;-64
2021/09/04 04:28:11;;;;;;;6.13;5.17;;;11.10;99.90;;;;;;5031495;28;20257;-64
2021/09/04 04:30:37;;;;;;;4.73;3.67;;;11.10;99.90;;;;;;5033625;28;20177;-64
2021/09/04 04:33:02;;;;;;;5.60;5.00;;;11.10;99.90;;;;;;5033482;28;20201;-65
2021/09/04 04:35:28;;;;;;;6.47;4.23;;;11.00;99.90;;;;;;5033441;28;20174;-64
2021/09/04 04:37:54;;;;;;;5.43;4.13;;;11.00;99.90;;;;;;5031783;28;20170;-64
2021/09/04 04:40:19;;;;;;;6.03;4.50;;;11.00;99.90;;;;;;5033439;28;20194;-64
2021/09/04 04:42:45;;;;;;;6.93;5.00;;;11.10;99.90;;;;;;5033249;28;20158;-64
2021/09/04 04:45:11;;;;;;;6.77;5.83;;;11.10;99.90;;;;;;5033622;28;20162;-64
2021/09/04 04:47:36;;;;;;;5.53;4.50;;;11.00;99.90;;;;;;5032975;28;20162;-64
2021/09/04 04:50:02;;;;;;;7.57;5.53;;;11.10;99.90;;;;;;5050956;28;20207;-64
2021/09/04 04:52:28;;;;;;;7.10;4.82;;;11.10;99.90;;;;;;5052926;28;20249;-64
2021/09/04 04:54:54;;;;;;;5.87;5.07;;;11.10;99.90;;;;;;5053173;28;20201;-64
2021/09/04 04:57:19;;;;;;;5.97;4.43;;;11.10;99.90;;;;;;5052869;28;20177;-65
2021/09/04 04:59:45;;;;;;;6.10;5.60;;;11.10;99.90;;;;;;5053117;28;20189;-64
2021/09/04 05:02:10;;;;;;;5.47;4.53;;;11.10;99.90;;;;;;5053154;28;20208;-64
2021/09/04 05:04:36;;;;;;;7.23;5.63;;;11.10;99.90;;;;;;5035667;28;20182;-64
2021/09/04 05:07:02;;;;;;;7.97;6.17;;;11.10;99.90;;;;;;5032600;28;20182;-63
2021/09/04 05:09:27;;;;;;;6.17;4.57;;;11.20;99.90;;;;;;5031425;28;20304;-64
2021/09/04 05:11:53;;;;;;;7.20;5.70;;;11.20;99.90;;;;;;5033214;28;20401;-64
2021/09/04 05:14:19;;;;;;;11.50;4.70;;;11.20;99.90;;;;;;5032920;28;20201;-63
2021/09/04 05:16:45;;;;;;;7.47;6.73;;;11.20;99.90;;;;;;5032796;28;20173;-64
2021/09/04 05:19:11;;;;;;;7.60;5.82;;;11.30;99.90;;;;;;5047222;28;20279;-64
2021/09/04 05:21:37;;;;;;;6.10;4.87;;;11.30;99.90;;;;;;5051615;28;20312;-64
2021/09/04 05:24:02;;;;;;;6.63;4.93;;;11.30;99.90;;;;;;5052994;28;20173;-66
2021/09/04 05:26:28;;;;;;;5.60;5.10;;;11.40;99.90;;;;;;5052860;28;20181;-66
2021/09/04 05:28:54;;;;;;;7.33;5.47;;;11.40;99.90;;;;;;5052425;28;20590;-66
2021/09/04 05:31:20;;;;;;;8.38;5.80;;;11.50;99.90;;;;;;5053681;28;20656;-67
2021/09/04 05:33:46;;;;;;;10.17;6.07;;;11.50;99.90;;;;;;5055756;28;20193;-65
2021/09/04 05:36:11;;;;;;;7.50;6.23;;;11.60;99.90;;;;;;5055377;28;20563;-66
2021/09/04 05:38:37;;;;;;;7.30;6.07;;;11.60;99.90;;;;;;5056112;28;20217;-65
2021/09/04 05:41:06;;;;;;;6.88;6.15;;;11.70;99.90;;;;;;5056561;28;20170;-66
2021/09/04 05:43:32;;;;;;;8.18;7.38;;;11.70;99.90;;;;;;5054910;28;20173;-65
2021/09/04 05:45:57;;;;;;;6.80;6.15;;;11.80;99.90;;;;;;5056381;28;20180;-65
2021/09/04 05:48:23;;;;;;;6.73;5.70;;;11.90;99.90;;;;;;5042599;28;20677;-65
2021/09/04 05:50:48;;;;;;;7.93;5.50;;;12.00;99.90;;;;;;5036192;28;20574;-64
2021/09/04 05:53:23;;;;;;;7.73;5.77;;;12.20;99.90;;;;;;5036117;28;20738;-65
2021/09/04 05:55:49;;;;;;;7.25;5.38;;;12.30;99.90;;;;;;5035033;28;20238;-64
2021/09/04 05:58:14;;;;;;;6.57;5.90;;;12.50;99.90;;;;;;5034373;28;20208;-65
2021/09/04 06:00:40;;;;;;;8.17;5.43;;;12.50;99.90;;;;;;5036020;28;20170;-66
2021/09/04 06:03:06;;;;;;;13.30;5.40;;;12.70;99.90;;;;;;5047645;28;20175;-66
2021/09/04 06:05:32;;;;;;;4.97;4.57;;;12.90;99.90;;;;;;5056072;28;20900;-65
2021/09/04 06:07:57;;;;;;;6.20;5.00;;;13.00;99.90;;;;;;5055656;28;20179;-65
2021/09/04 06:10:24;;;;;;;5.83;4.87;;;13.00;99.90;;;;;;5055762;28;20686;-64
2021/09/04 06:12:49;;;;;;;6.27;4.63;;;13.20;99.90;;;;;;5055879;28;20502;-64
2021/09/04 06:15:15;;;;;;;5.10;4.60;;;13.40;99.90;;;;;;5055873;28;20405;-64
2021/09/04 06:17:41;;;;;;;6.97;4.37;;;13.60;99.90;;;;;;5044183;28;20576;-64
2021/09/04 06:20:07;;;;;;;3.83;3.43;;;13.70;99.90;;;;;;5035963;28;20199;-61
2021/09/04 06:22:34;;;;;;;5.07;4.57;;;13.80;99.90;;;;;;5051136;28;20639;-65
2021/09/04 06:24:59;;;;;;;4.80;4.37;;;13.90;99.90;;;;;;5036049;28;20968;-63
2021/09/04 06:27:25;;;;;;;3.80;3.43;;;14.20;99.90;;;;;;5034086;28;20443;-62
2021/09/04 06:29:51;;;;;;;4.73;4.23;;;14.30;99.90;;;;;;5035455;28;20193;-63
2021/09/04 06:32:16;;;;;;;5.63;4.77;;;14.40;99.90;;;;;;5035515;28;20191;-63
2021/09/04 06:34:42;;;;;;;5.17;4.40;;;14.40;99.90;;;;;;5034100;28;20553;-63
2021/09/04 06:37:08;;;;;;;5.17;4.67;;;14.50;99.90;;;;;;5035333;28;20170;-62
2021/09/04 06:39:33;;;;;;;5.50;4.40;;;14.50;99.90;;;;;;5035410;28;20189;-64
2021/09/04 06:41:59;;;;;;;4.90;4.50;;;14.60;99.90;;;;;;5035061;28;20738;-64
2021/09/04 06:44:25;;;;;;;3.57;3.27;;;14.60;99.90;;;;;;5034675;28;20196;-63
2021/09/04 06:46:51;;;;;;;4.70;3.80;;;14.80;99.90;;;;;;5034888;28;20177;-63
2021/09/04 06:49:16;;;;;;;4.70;4.20;;;15.00;99.90;;;;;;5039395;28;20411;-63
2021/09/04 06:51:42;;;;;;;4.13;3.80;;;15.20;99.90;;;;;;5035247;28;20172;-63
2021/09/04 06:54:08;;;;;;;4.57;4.17;;;15.40;99.90;;;;;;5033871;28;20672;-66
2021/09/04 06:56:33;;;;;;;4.63;4.20;;;15.70;99.90;;;;;;5034801;28;20166;-66
2021/09/04 06:58:59;;;;;;;4.77;3.87;;;16.00;99.90;;;;;;5034737;28;20607;-65
2021/09/04 07:01:25;;;;;;;5.07;4.27;;;16.30;99.90;;;;;;5035141;28;20642;-69
2021/09/04 07:03:50;;;;;;;5.20;3.83;;;16.50;99.90;;;;;;5035206;28;20641;-66
2021/09/04 07:06:16;;;;;;;4.43;4.03;;;16.90;99.90;;;;;;5035045;28;20533;-67
2021/09/04 07:08:42;;;;;;;3.90;3.23;;;17.30;99.90;;;;;;5034619;28;20203;-66
2021/09/04 07:11:08;;;;;;;4.13;3.43;;;17.80;99.90;;;;;;5034724;28;20212;-68
2021/09/04 07:13:33;;;;;;;4.43;4.10;;;18.30;99.90;;;;;;5034532;28;20659;-67
2021/09/04 07:15:59;;;;;;;4.30;3.90;;;18.80;99.90;;;;;;5035036;28;20413;-65
2021/09/04 07:18:25;;;;;;;3.80;3.50;;;18.80;99.90;;;;;;5044838;28;20798;-66
2021/09/04 07:20:51;;;;;;;3.80;3.43;;;18.70;99.90;;;;;;5054637;28;20577;-65
2021/09/04 07:23:17;;;;;;;4.07;3.67;;;18.50;99.90;;;;;;5054599;28;20173;-68
2021/09/04 07:25:43;;;;;;;4.03;3.60;;;18.50;99.90;;;;;;5054007;28;20415;-69
2021/09/04 07:28:09;;;;;;;4.30;3.57;;;18.50;99.90;;;;;;5053785;28;20244;-68
2021/09/04 07:30:35;;;;;;;4.00;3.60;;;18.50;99.90;;;;;;5054363;28;20566;-67
2021/09/04 07:33:03;;;;;;;6.20;4.40;;;18.50;99.90;;;;;;5053680;28;20209;-68
2021/09/04 07:35:29;;;;;;;4.17;3.87;;;18.60;99.90;;;;;;5054347;28;20403;-70
2021/09/04 07:37:55;;;;;;;4.20;3.70;;;18.50;99.90;;;;;;5053873;28;20486;-65
2021/09/04 07:40:21;;;;;;;3.90;3.60;;;18.60;99.90;;;;;;5053854;28;20433;-67
2021/09/04 07:42:47;;;;;;;4.33;3.97;;;18.60;99.90;;;;;;5052815;28;20180;-65
2021/09/04 07:45:13;;;;;;;4.80;4.20;;;18.60;99.90;;;;;;5054162;28;20416;-62
2021/09/04 07:47:38;;;;;;;5.80;4.43;;;18.80;99.90;;;;;;5045057;28;20552;-64
2021/09/04 07:50:05;;;;;;;5.47;4.67;;;19.20;99.90;;;;;;5033865;28;20245;-65
2021/09/04 07:52:31;;;;;;;5.60;4.13;;;19.70;99.90;;;;;;5032887;28;20176;-65
2021/09/04 07:54:56;;;;;;;5.03;3.73;;;20.40;99.90;;;;;;5033740;28;20547;-63
2021/09/04 07:57:22;;;;;;;5.13;3.90;;;21.30;99.90;;;;;;5033571;28;20262;-67
2021/09/04 07:59:48;;;;;;;4.53;4.13;;;22.50;99.90;;;;;;5046681;28;20552;-65
2021/09/04 08:02:13;;;;;;;4.20;3.80;;;24.00;99.90;;;;;;5053543;28;20176;-64
2021/09/04 08:04:39;;;;;;;4.93;3.60;;;25.50;98.80;;;;;;5053681;28;20184;-66
2021/09/04 08:07:05;;;;;;;4.87;4.47;;;26.90;96.50;;;;;;5053100;28;20517;-64
2021/09/04 08:09:31;;;;;;;4.97;4.47;;;28.20;93.70;;;;;;5052309;28;20201;-65
2021/09/04 08:11:56;;;;;;;5.27;4.77;;;29.30;90.70;;;;;;5053796;28;20413;-63
2021/09/04 08:14:22;;;;;;;5.27;4.80;;;30.20;88.60;;;;;;5052002;28;20279;-67
2021/09/04 08:16:47;;;;;;;4.53;4.23;;;31.00;84.60;;;;;;5052812;28;20595;-64
2021/09/04 08:19:13;;;;;;;5.20;4.80;;;31.50;82.50;;;;;;5051716;28;20560;-67
2021/09/04 08:21:39;;;;;;;4.93;4.53;;;31.90;79.20;;;;;;5052920;28;20174;-64
2021/09/04 08:24:04;;;;;;;4.63;4.23;;;32.30;78.80;;;;;;5051926;28;20177;-64
2021/09/04 08:26:30;;;;;;;5.30;4.83;;;33.00;75.50;;;;;;5052657;28;20170;-66
2021/09/04 08:28:56;;;;;;;4.40;4.07;;;33.30;71.60;;;;;;5042099;28;20281;-64
2021/09/04 08:31:22;;;;;;;6.07;5.57;;;33.60;70.80;;;;;;5032878;28;20213;-65
2021/09/04 08:33:47;;;;;;;5.80;5.30;;;34.10;66.70;;;;;;5032777;28;20256;-63
2021/09/04 08:36:15;;;;;;;6.33;5.80;;;34.10;67.30;;;;;;5033260;28;20198;-66
2021/09/04 08:38:40;;;;;;;5.80;5.40;;;34.40;66.60;;;;;;5032905;28;20478;-64
2021/09/04 08:41:06;;;;;;;5.10;4.70;;;34.90;65.40;;;;;;5033231;28;20170;-65
2021/09/04 08:43:33;;;;;;;6.43;5.83;;;34.90;62.80;;;;;;5033288;28;20263;-65
2021/09/04 08:46:00;;;;;;;5.50;5.10;;;34.70;61.80;;;;;;5033053;28;20405;-65
2021/09/04 08:48:26;;;;;;;4.80;4.47;;;34.60;62.00;;;;;;5032578;28;20436;-65
2021/09/04 08:50:53;;;;;;;6.17;4.80;;;34.80;61.10;;;;;;5033516;28;20448;-64
2021/09/04 08:53:23;;;;;;;5.50;5.10;;;34.80;62.40;;;;;;5033136;28;20806;-66
2021/09/04 08:55:49;;;;;;;4.93;4.50;;;35.00;62.40;;;;;;5033034;28;20417;-65
2021/09/04 08:58:15;;;;;;;5.47;4.97;;;34.90;60.90;;;;;;5041247;28;20762;-65
2021/09/04 09:00:42;;;;;;;5.47;4.97;;;34.80;59.90;;;;;;5052805;28;20420;-64
2021/09/04 09:03:25;;;;;;;4.77;4.37;;;34.50;59.50;;;;;;5052689;28;20201;-66
2021/09/04 09:05:54;;;;;;;4.83;4.43;;;33.90;60.20;;;;;;5052197;28;20488;-67
2021/09/04 09:08:25;;;;;;;4.20;3.90;;;34.00;60.10;;;;;;5056530;28;20423;-65
2021/09/04 09:10:52;;;;;;;5.17;4.67;;;34.70;59.40;;;;;;5056881;28;20790;-66
2021/09/04 09:13:21;;;;;;;4.80;4.47;;;35.40;58.80;;;;;;5045490;28;20424;-67
2021/09/04 09:15:48;;;;;;;4.43;4.10;;;35.80;58.10;;;;;;5037200;28;21014;-67
2021/09/04 09:18:15;;;;;;;5.20;4.80;;;36.20;58.00;;;;;;5036386;28;20512;-67
2021/09/04 09:20:58;;;;;;;5.17;4.67;;;36.30;56.50;;;;;;5036728;28;20416;-66
2021/09/04 09:23:24;;;;;;;3.80;3.60;;;36.40;55.80;;;;;;5036942;28;20460;-66
2021/09/04 09:25:49;;;;;;;4.40;4.13;;;36.70;55.60;;;;;;5035339;28;20916;-67
2021/09/04 09:28:21;;;;;;;3.93;3.63;;;37.10;54.80;;;;;;5049179;28;20597;-66
2021/09/04 09:30:56;;;;;;;4.23;3.93;;;37.30;54.20;;;;;;5056584;28;20234;-65
2021/09/04 09:33:23;;;;;;;3.93;3.70;;;37.30;53.70;;;;;;5056571;28;20439;-67
2021/09/04 09:35:50;;;;;;;3.80;3.60;;;37.20;53.90;;;;;;5056065;28;20435;-68
2021/09/04 09:38:21;;;;;;;4.23;3.93;;;37.70;53.40;;;;;;5056073;28;20400;-67
2021/09/04 09:40:49;;;;;;;4.30;4.00;;;37.90;52.60;;;;;;5056665;28;20408;-66
2021/09/04 09:43:24;;;;;;;4.40;4.10;;;37.50;52.70;;;;;;5051469;28;20461;-67
2021/09/04 09:45:50;;;;;;;4.30;4.00;;;37.00;53.20;;;;;;5036497;28;20405;-66
2021/09/04 09:48:19;;;;;;;4.40;4.10;;;36.90;53.20;;;;;;5035940;28;20412;-67
2021/09/04 09:50:45;;;;;;;4.87;4.43;;;37.20;53.60;;;;;;5036218;28;20401;-65
2021/09/04 09:53:11;;;;;;;4.93;4.53;;;37.50;52.80;;;;;;5036227;28;20416;-68
2021/09/04 09:55:38;;;;;;;4.50;4.20;;;37.30;52.70;;;;;;5036215;28;20416;-64
2021/09/04 09:58:03;;;;;;;4.13;3.83;;;37.50;52.60;;;;;;5040016;28;20186;-65
2021/09/04 10:00:30;;;;;;;4.87;4.57;;;37.80;52.10;;;;;;5055037;28;20434;-65
2021/09/04 10:03:01;;;;;;;4.37;3.90;;;37.70;51.90;;;;;;5056074;28;20177;-68
2021/09/04 10:05:29;;;;;;;4.13;3.83;;;37.90;51.20;;;;;;5055950;28;20400;-66
2021/09/04 10:07:55;;;;;;;3.83;3.63;;;37.70;51.70;;;;;;5055620;28;20755;-68
2021/09/04 10:10:23;;;;;;;3.53;3.30;;;37.50;49.90;;;;;;5047774;28;20523;-65
2021/09/04 10:12:49;;;;;;;4.80;4.50;;;37.20;50.20;;;;;;5036031;28;20471;-65
2021/09/04 10:15:15;;;;;;;3.67;3.47;;;37.00;50.20;;;;;;5035779;28;20405;-65
2021/09/04 10:17:42;;;;;;;2.93;2.73;;;36.70;50.00;;;;;;5034190;28;20433;-66
2021/09/04 10:20:08;;;;;;;4.00;3.70;;;36.50;49.10;;;;;;5035691;28;20488;-65
2021/09/04 10:22:34;;;;;;;4.10;3.80;;;36.00;50.30;;;;;;5035592;28;20471;-66
2021/09/04 10:25:02;;;;;;;5.80;2.97;;;35.50;50.70;;;;;;5042252;28;20459;-68
2021/09/04 10:27:34;;;;;;;3.47;3.27;;;34.90;51.30;;;;;;5055196;28;20165;-65
2021/09/04 10:30:24;;;;;;;3.57;3.27;;;34.70;51.40;;;;;;5055426;28;20416;-65
2021/09/04 10:33:01;;;;;;;3.13;2.40;;;34.40;50.20;;;;;;5055398;28;20420;-66
2021/09/04 10:35:41;;;;;;;3.20;3.00;;;34.00;50.20;;;;;;5055463;28;20400;-64
2021/09/04 10:38:34;;;;;;;3.37;3.17;;;34.10;50.90;;;;;;5055072;28;20403;-67
2021/09/04 10:41:19;;;;;;;3.93;3.00;;;34.00;52.60;;;;;;5035454;28;20437;-66
2021/09/04 10:43:46;;;;;;;3.10;2.90;;;34.10;51.70;;;;;;5035429;28;20518;-64
2021/09/04 10:46:15;;;;;;;3.33;2.97;;;34.10;52.20;;;;;;5035309;28;20405;-67
2021/09/04 10:48:41;;;;;;;3.13;2.90;;;34.10;53.20;;;;;;5034832;28;20428;-66
2021/09/04 10:51:09;;;;;;;3.17;2.97;;;34.10;53.00;;;;;;5035135;28;20413;-65
2021/09/04 10:53:51;;;;;;;2.70;2.50;;;34.10;52.70;;;;;;5038327;28;20726;-67
2021/09/04 10:56:25;;;;;;;3.00;2.80;;;33.90;50.90;;;;;;5055133;28;20750;-68
2021/09/04 10:58:52;;;;;;;2.80;2.60;;;33.50;51.30;;;;;;5054501;28;20916;-65
2021/09/04 11:01:24;;;;;;;3.10;2.90;;;33.50;51.10;;;;;;5055005;28;20762;-67
2021/09/04 11:03:53;;;;;;;3.57;3.27;;;33.50;52.00;;;;;;5054733;28;20898;-64
2021/09/04 11:06:20;;;;;;;3.50;3.20;;;33.40;51.80;;;;;;5054672;28;20451;-65
2021/09/04 11:08:46;;;;;;;3.53;3.23;;;33.20;52.40;;;;;;5046927;28;20455;-64
2021/09/04 11:11:18;;;;;;;3.63;3.33;;;32.60;53.10;;;;;;5034506;28;20417;-64
2021/09/04 11:13:52;;;;;;;3.30;3.00;;;31.70;54.10;;;;;;5034563;28;20388;-64
2021/09/04 11:16:32;;;;;;;3.33;3.00;;;30.80;55.80;;;;;;5034614;28;20399;-66
2021/09/04 11:19:05;;;;;;;3.50;3.20;;;29.90;56.90;;;;;;5033108;28;20771;-66
2021/09/04 11:21:31;;;;;;;4.13;3.10;;;28.90;58.20;;;;;;5034676;28;20401;-67
2021/09/04 11:23:57;;;;;;;3.00;2.80;;;28.20;59.00;;;;;;5034311;28;20448;-65
2021/09/04 11:26:23;;;;;;;3.33;2.77;;;27.70;60.60;;;;;;5034466;28;20376;-67
2021/09/04 11:28:59;;;;;;;2.77;2.50;;;27.20;61.50;;;;;;5033892;28;20809;-66
2021/09/04 11:31:25;;;;;;;2.90;2.70;;;26.80;62.90;;;;;;5034209;28;20673;-67
2021/09/04 11:33:55;;;;;;;3.13;2.60;;;26.40;62.70;;;;;;5033203;28;20428;-65
2021/09/04 11:36:37;;;;;;;2.37;2.17;;;26.10;64.00;;;;;;5034266;28;20440;-68
2021/09/04 11:39:04;;;;;;;2.00;1.80;;;25.90;62.90;;;;;;5046852;28;20475;-65
2021/09/04 11:41:30;;;;;;;2.23;2.13;;;25.80;64.40;;;;;;5054295;28;20429;-67
2021/09/04 11:43:55;;;;;;;3.20;2.90;;;25.80;64.10;;;;;;5052824;28;20956;-65
2021/09/04 11:46:25;;;;;;;2.50;2.30;;;25.70;65.60;;;;;;5054080;28;20517;-67
2021/09/04 11:48:56;;;;;;;2.83;2.47;;;25.60;65.70;;;;;;5047729;28;20213;-64
2021/09/04 11:51:22;;;;;;;3.10;2.80;;;25.50;63.70;;;;;;5034034;28;20368;-68
2021/09/04 11:53:58;;;;;;;3.63;2.87;;;25.30;67.10;;;;;;5033974;28;20432;-68
2021/09/04 11:56:24;;;;;;;3.63;3.30;;;25.30;67.90;;;;;;5034292;28;20383;-66
2021/09/04 11:58:50;;;;;;;2.93;2.33;;;25.30;67.30;;;;;;5052259;28;20933;-65
2021/09/04 12:01:18;;;;;;;2.70;2.47;;;25.30;67.50;;;;;;5053702;28;20189;-66
2021/09/04 12:03:44;;;;;;;2.23;2.07;;;25.50;68.60;;;;;;5053447;28;20319;-64
2021/09/04 12:06:10;;;;;;;5.30;2.30;;;25.60;64.20;;;;;;5053448;28;20460;-67
2021/09/04 12:08:37;;;;;;;2.70;2.10;;;25.50;62.20;;;;;;5053254;28;20189;-65
2021/09/04 12:11:07;;;;;;;2.90;2.57;;;25.50;63.30;;;;;;5053772;28;20386;-65
2021/09/04 12:13:34;;;;;;;3.47;2.40;;;25.50;65.80;;;;;;5035008;28;20448;-64
2021/09/04 12:16:02;;;;;;;2.60;2.40;;;25.40;66.80;;;;;;5032389;28;20802;-65
2021/09/04 12:18:34;;;;;;;2.23;2.10;;;25.30;65.50;;;;;;5033243;28;20919;-67
2021/09/04 12:21:23;;;;;;;2.17;1.97;;;25.20;65.70;;;;;;5033638;28;20407;-67
2021/09/04 12:23:51;;;;;;;2.60;2.40;;;25.20;66.90;;;;;;5032167;28;20453;-66
2021/09/04 12:26:17;;;;;;;2.70;2.50;;;25.10;67.20;;;;;;5035153;28;20405;-65
2021/09/04 12:28:43;;;;;;;2.70;2.50;;;25.10;66.80;;;;;;5052726;28;20994;-67
2021/09/04 12:31:11;;;;;;;2.40;2.20;;;25.10;67.00;;;;;;5053081;28;20404;-66
2021/09/04 12:33:52;;;;;;;3.90;2.90;;;25.10;67.50;;;;;;5053246;28;20734;-65
2021/09/04 12:36:33;;;;;;;2.63;2.30;;;25.00;67.00;;;;;;5053231;28;20816;-65
2021/09/04 12:39:11;;;;;;;3.60;2.70;;;25.10;68.30;;;;;;5052987;28;20412;-66
2021/09/04 12:41:36;;;;;;;2.70;2.50;;;25.10;70.20;;;;;;5037867;28;20423;-65
2021/09/04 12:44:06;;;;;;;3.47;3.17;;;25.10;69.30;;;;;;5052856;28;20422;-66
2021/09/04 12:46:38;;;;;;;3.20;3.00;;;25.20;69.10;;;;;;5053014;28;20288;-65